Angleton, Texas
Current Conditions -  °F | °C
As of 6:53 PM on Monday 20 Oct 2014 (Local Time) from KLBX Reporting Station
Clear Clear  
Wind Chill: 73°   Ceiling: Unl
Heat Index: 73°   Visibility: 10mi
Dew Point: 66°   Wind: 5mph
Humidity: 79%   Direction: 90°E
Pressure: 29.98"   Gusts: NA
Location:  29.16°N, 95.43°W
Report Text: KLBX 202353Z AUTO 09004KT 10SM CLR 23/19 A2998 RMK AO2 SLP152 T02280189 10278 20228 $
Loading
Personal Weather Stations






























Interactive Weather Map New forecast layout! Learn more

10-Day Weather Forecast

Advertisements
Track Severe Weather on mobile